createdAt,value
2019-02-02T00:01:12.952Z,32.83
2019-02-02T00:03:41.243Z,30.60
2019-02-02T00:06:09.561Z,31.60
2019-02-02T00:08:38.092Z,25.03
2019-02-02T00:11:06.450Z,30.43
2019-02-02T00:13:34.751Z,30.90
2019-02-02T00:16:03.030Z,28.33
2019-02-02T00:18:31.307Z,25.80
2019-02-02T00:20:59.586Z,30.20
2019-02-02T00:23:27.863Z,28.27
2019-02-02T00:25:56.150Z,28.60
2019-02-02T00:28:24.433Z,31.13
2019-02-02T00:30:52.798Z,27.87
2019-02-02T00:33:21.148Z,30.17
2019-02-02T00:35:49.410Z,28.53
2019-02-02T00:38:17.726Z,25.40
2019-02-02T00:40:45.985Z,24.17
2019-02-02T00:43:14.248Z,31.70
2019-02-02T00:45:42.531Z,23.53
2019-02-02T00:48:10.839Z,23.97
2019-02-02T00:50:39.203Z,26.87
2019-02-02T00:53:07.464Z,25.63
2019-02-02T00:55:35.743Z,24.53
2019-02-02T00:58:04.473Z,27.30
2019-02-02T01:00:32.749Z,27.90
2019-02-02T01:03:01.029Z,23.10
2019-02-02T01:05:29.307Z,26.30
2019-02-02T01:07:57.583Z,27.27
2019-02-02T01:10:32.099Z,25.13
2019-02-02T01:13:00.370Z,24.67
2019-02-02T01:15:28.674Z,23.27
2019-02-02T01:17:56.956Z,25.70
2019-02-02T01:20:25.236Z,24.77
2019-02-02T01:22:53.553Z,21.63
2019-02-02T01:25:21.813Z,21.83
2019-02-02T01:27:50.093Z,21.90
2019-02-02T01:30:20.334Z,20.03
2019-02-02T01:32:48.596Z,21.20
2019-02-02T01:35:18.319Z,22.37
2019-02-02T01:37:46.598Z,16.87
2019-02-02T01:40:26.455Z,21.60
2019-02-02T01:42:55.166Z,20.67
2019-02-02T01:45:27.857Z,23.03
2019-02-02T01:47:56.198Z,21.60
2019-02-02T01:50:26.100Z,22.40
2019-02-02T01:52:54.408Z,18.50
2019-02-02T01:55:22.681Z,18.13
2019-02-02T01:57:50.958Z,22.30
2019-02-02T02:00:22.505Z,23.10
2019-02-02T02:02:50.821Z,20.60
2019-02-02T02:05:19.099Z,20.23
2019-02-02T02:07:47.375Z,21.23
2019-02-02T02:10:20.022Z,17.97
2019-02-02T02:12:48.361Z,20.80
2019-02-02T02:15:18.173Z,18.40
2019-02-02T02:17:46.486Z,20.07
2019-02-02T02:20:17.523Z,19.73
2019-02-02T02:22:46.448Z,19.50
2019-02-02T02:25:16.630Z,16.53
2019-02-02T02:27:44.966Z,21.40
2019-02-02T02:30:15.689Z,19.93
2019-02-02T02:32:43.962Z,19.90
2019-02-02T02:35:12.287Z,18.40
2019-02-02T02:37:40.651Z,19.33
2019-02-02T02:40:12.205Z,19.40
2019-02-02T02:42:40.494Z,17.37
2019-02-02T02:45:10.816Z,17.50
2019-02-02T02:47:39.080Z,17.33
2019-02-02T02:50:10.645Z,16.63
2019-02-02T02:52:38.952Z,21.70
2019-02-02T02:55:09.833Z,20.10
2019-02-02T02:57:38.101Z,18.70
2019-02-02T03:00:15.478Z,17.93
2019-02-02T03:02:43.755Z,18.17
2019-02-02T03:05:12.597Z,18.73
2019-02-02T03:07:40.955Z,19.27
2019-02-02T03:10:15.223Z,17.47
2019-02-02T03:12:43.500Z,17.30
2019-02-02T03:15:14.187Z,18.50
2019-02-02T03:17:42.551Z,17.60
2019-02-02T03:20:13.269Z,17.83
2019-02-02T03:22:41.528Z,19.00
2019-02-02T03:25:24.165Z,16.90
2019-02-02T03:27:52.482Z,17.90
2019-02-02T03:30:21.537Z,19.97
2019-02-02T03:32:49.907Z,14.67
2019-02-02T03:35:23.586Z,19.93
2019-02-02T03:37:52.258Z,16.50
2019-02-02T03:40:22.431Z,15.83
2019-02-02T03:42:50.846Z,18.63
2019-02-02T03:45:21.722Z,18.93
2019-02-02T03:47:50.391Z,15.23
2019-02-02T03:50:18.667Z,14.83
2019-02-02T03:52:46.933Z,16.30
2019-02-02T03:55:15.893Z,16.67
2019-02-02T03:57:44.299Z,15.70
2019-02-02T04:00:23.083Z,18.20
2019-02-02T04:02:51.383Z,15.90
2019-02-02T04:05:28.377Z,16.60
2019-02-02T04:07:56.758Z,18.07
2019-02-02T04:10:25.024Z,17.70
2019-02-02T04:12:53.294Z,18.10
2019-02-02T04:15:21.565Z,15.07
2019-02-02T04:17:49.838Z,14.83
2019-02-02T04:20:23.252Z,14.67
2019-02-02T04:22:51.589Z,14.90
2019-02-02T04:25:21.211Z,19.30
2019-02-02T04:27:49.583Z,15.60
2019-02-02T04:30:20.104Z,15.53
2019-02-02T04:32:48.442Z,17.23
2019-02-02T04:35:16.755Z,15.70
2019-02-02T04:37:45.036Z,18.07
2019-02-02T04:40:15.210Z,16.57
2019-02-02T04:42:43.521Z,15.10
2019-02-02T04:45:14.125Z,17.63
2019-02-02T04:47:42.397Z,15.27
2019-02-02T04:50:15.790Z,17.27
2019-02-02T04:52:44.059Z,18.00
2019-02-02T04:55:14.438Z,15.87
2019-02-02T04:57:42.714Z,16.37
2019-02-02T05:00:17.138Z,21.27
2019-02-02T05:02:45.763Z,15.70
2019-02-02T05:05:16.166Z,14.90
2019-02-02T05:07:44.435Z,17.73
2019-02-02T05:10:15.423Z,18.03
2019-02-02T05:12:43.685Z,17.70
2019-02-02T05:15:11.989Z,12.73
2019-02-02T05:17:40.273Z,16.53
2019-02-02T05:20:11.658Z,15.40
2019-02-02T05:22:39.964Z,16.50
2019-02-02T05:25:09.381Z,17.97
2019-02-02T05:27:37.646Z,14.50
2019-02-02T05:30:17.779Z,13.50
2019-02-02T05:32:46.053Z,16.47
2019-02-02T05:35:14.316Z,13.20
2019-02-02T05:37:42.590Z,12.30
2019-02-02T05:40:22.334Z,14.87
2019-02-02T05:42:50.620Z,17.90
2019-02-02T05:45:20.717Z,16.77
2019-02-02T05:47:49.102Z,20.73
2019-02-02T05:50:19.310Z,19.30
2019-02-02T05:52:47.696Z,20.17
2019-02-02T05:55:18.279Z,17.37
2019-02-02T05:57:46.624Z,15.87
2019-02-02T06:00:25.197Z,18.50
2019-02-02T06:02:53.462Z,17.53
2019-02-02T06:05:21.748Z,17.60
2019-02-02T06:07:50.096Z,23.60
2019-02-02T06:10:19.812Z,15.27
2019-02-02T06:12:48.176Z,17.00
2019-02-02T06:15:16.559Z,19.63
2019-02-02T06:17:44.834Z,19.43
2019-02-02T06:20:16.901Z,21.47
2019-02-02T06:22:45.183Z,19.93
2019-02-02T06:25:16.630Z,20.77
2019-02-02T06:27:44.975Z,23.93
2019-02-02T06:30:16.154Z,25.73
2019-02-02T06:32:44.439Z,21.53
2019-02-02T06:35:13.457Z,20.20
2019-02-02T06:37:41.776Z,14.60
2019-02-02T06:40:12.094Z,20.37
2019-02-02T06:42:40.434Z,18.03
2019-02-02T06:45:12.274Z,18.03
2019-02-02T06:47:40.554Z,19.10
2019-02-02T06:50:12.108Z,19.37
2019-02-02T06:52:40.387Z,16.97
2019-02-02T06:55:11.298Z,16.07
2019-02-02T06:57:39.606Z,19.27
2019-02-02T07:00:16.154Z,16.40
2019-02-02T07:02:44.036Z,20.53
2019-02-02T07:05:12.345Z,22.47
2019-02-02T07:07:40.629Z,18.97
2019-02-02T07:10:12.266Z,20.03
2019-02-02T07:12:40.582Z,18.00
2019-02-02T07:15:12.148Z,16.73
2019-02-02T07:17:40.420Z,15.43
2019-02-02T07:20:11.222Z,16.40
2019-02-02T07:22:39.506Z,17.87
2019-02-02T07:25:09.685Z,17.77
2019-02-02T07:27:37.948Z,17.33
2019-02-02T07:30:28.338Z,18.17
2019-02-02T07:32:47.783Z,17.07
2019-02-02T07:35:16.210Z,19.37
2019-02-02T07:37:44.602Z,22.47
2019-02-02T07:40:15.710Z,24.73
2019-02-02T07:42:44.056Z,20.90
2019-02-02T07:45:17.929Z,26.67
2019-02-02T07:47:46.278Z,17.73
2019-02-02T07:50:16.947Z,17.33
2019-02-02T07:52:45.229Z,16.67
2019-02-02T07:55:18.588Z,13.83
2019-02-02T07:57:47.030Z,15.63
2019-02-02T08:00:23.793Z,16.10
2019-02-02T08:02:52.069Z,15.10
2019-02-02T08:05:20.337Z,15.23
2019-02-02T08:07:48.616Z,22.30
2019-02-02T08:10:16.896Z,17.57
2019-02-02T08:12:52.415Z,19.27
2019-02-02T08:15:23.336Z,20.40
2019-02-02T08:17:51.659Z,17.13
2019-02-02T08:20:19.930Z,16.97
2019-02-02T08:22:48.247Z,13.57
2019-02-02T08:25:16.727Z,16.20
2019-02-02T08:27:45.133Z,14.23
2019-02-02T08:30:22.028Z,13.70
2019-02-02T08:32:50.362Z,15.97
2019-02-02T08:35:18.651Z,18.87
2019-02-02T08:37:46.950Z,16.03
2019-02-02T08:40:17.253Z,14.67
2019-02-02T08:42:45.527Z,14.60
2019-02-02T08:45:15.213Z,16.17
2019-02-02T08:47:43.496Z,16.90
2019-02-02T08:50:15.179Z,15.60
2019-02-02T08:52:43.463Z,15.70
2019-02-02T08:55:11.733Z,17.10
2019-02-02T08:57:40.091Z,15.47
2019-02-02T09:00:17.165Z,13.13
2019-02-02T09:02:45.537Z,13.83
2019-02-02T09:05:16.228Z,15.13
2019-02-02T09:07:44.623Z,14.90
2019-02-02T09:10:15.608Z,16.13
2019-02-02T09:12:43.881Z,19.37
2019-02-02T09:15:14.606Z,17.00
2019-02-02T09:17:42.941Z,15.47
2019-02-02T09:20:12.821Z,18.97
2019-02-02T09:22:41.162Z,17.07
2019-02-02T09:25:15.108Z,14.57
2019-02-02T09:27:43.436Z,16.63
2019-02-02T09:30:29.856Z,17.43
2019-02-02T09:32:58.169Z,17.27
2019-02-02T09:35:26.469Z,15.03
2019-02-02T09:37:54.777Z,17.73
2019-02-02T09:40:25.465Z,14.93
2019-02-02T09:42:53.516Z,14.97
2019-02-02T09:45:23.406Z,20.10
2019-02-02T09:47:51.679Z,18.20
2019-02-02T09:50:26.892Z,14.50
2019-02-02T09:52:55.165Z,22.67
2019-02-02T09:55:24.883Z,16.07
2019-02-02T09:57:55.796Z,19.07
2019-02-02T10:00:29.298Z,18.87
2019-02-02T10:02:58.023Z,21.50
2019-02-02T10:05:26.745Z,16.03
2019-02-02T10:07:55.025Z,16.83
2019-02-02T10:10:25.616Z,14.57
2019-02-02T10:12:53.913Z,16.80
2019-02-02T10:15:22.253Z,19.27
2019-02-02T10:17:51.003Z,18.73
2019-02-02T10:20:25.076Z,17.17
2019-02-02T10:22:54.100Z,16.57
2019-02-02T10:25:24.834Z,20.63
2019-02-02T10:27:53.102Z,17.87
2019-02-02T10:30:24.376Z,16.17
2019-02-02T10:32:52.734Z,17.67
2019-02-02T10:35:21.080Z,20.03
2019-02-02T10:37:49.348Z,18.43
2019-02-02T10:40:17.613Z,14.73
2019-02-02T10:42:45.880Z,13.00
2019-02-02T10:45:16.181Z,16.17
2019-02-02T10:47:44.440Z,16.77
2019-02-02T10:50:15.741Z,14.47
2019-02-02T10:52:44.018Z,19.47
2019-02-02T10:55:14.329Z,20.90
2019-02-02T10:57:43.040Z,20.43
2019-02-02T11:00:18.222Z,20.63
2019-02-02T11:02:46.630Z,26.27
2019-02-02T11:05:15.228Z,23.03
2019-02-02T11:07:43.796Z,20.80
2019-02-02T11:10:18.103Z,17.13
2019-02-02T11:12:46.199Z,19.83
2019-02-02T11:15:20.235Z,17.57
2019-02-02T11:17:48.659Z,16.20
2019-02-02T11:20:22.359Z,19.27
2019-02-02T11:22:50.705Z,20.10
2019-02-02T11:25:19.076Z,20.33
2019-02-02T11:27:47.651Z,22.50
2019-02-02T11:30:22.463Z,22.73
2019-02-02T11:32:50.912Z,22.07
2019-02-02T11:35:22.413Z,19.47
2019-02-02T11:37:50.810Z,20.97
2019-02-02T11:40:21.717Z,22.67
2019-02-02T11:42:50.329Z,21.13
2019-02-02T11:45:18.609Z,18.30
2019-02-02T11:47:46.886Z,15.20
2019-02-02T11:50:17.958Z,17.43
2019-02-02T11:52:46.382Z,15.50
2019-02-02T11:55:17.089Z,15.37
2019-02-02T11:57:45.360Z,16.87
2019-02-02T12:00:25.645Z,15.87
2019-02-02T12:02:54.001Z,18.17
2019-02-02T12:05:22.355Z,18.33
2019-02-02T12:07:50.661Z,15.83
2019-02-02T12:10:21.609Z,18.93
2019-02-02T12:12:49.875Z,16.83
2019-02-02T12:15:19.314Z,16.90
2019-02-02T12:17:48.307Z,15.03
2019-02-02T12:20:19.167Z,16.23
2019-02-02T12:22:47.534Z,15.80
2019-02-02T12:25:15.937Z,18.97
2019-02-02T12:27:44.681Z,20.63
2019-02-02T12:30:21.484Z,14.43
2019-02-02T12:32:49.768Z,16.03
2019-02-02T12:35:20.389Z,15.20
2019-02-02T12:37:48.765Z,17.60
2019-02-02T12:40:21.835Z,16.10
2019-02-02T12:42:50.103Z,16.33
2019-02-02T12:45:24.422Z,13.73
2019-02-02T12:47:52.775Z,15.87
2019-02-02T12:50:21.052Z,22.40
2019-02-02T12:52:49.324Z,15.90
2019-02-02T12:55:17.686Z,12.63
2019-02-02T12:57:45.964Z,15.60
2019-02-02T13:00:16.795Z,18.90
2019-02-02T13:02:45.239Z,19.70
2019-02-02T13:05:15.219Z,15.70
2019-02-02T13:07:43.499Z,20.00
2019-02-02T13:10:17.669Z,13.07
2019-02-02T13:12:45.982Z,16.07
2019-02-02T13:15:14.347Z,16.60
2019-02-02T13:17:42.692Z,17.00
2019-02-02T13:20:13.420Z,17.80
2019-02-02T13:22:41.709Z,15.23
2019-02-02T13:25:21.790Z,14.83
2019-02-02T13:27:50.147Z,15.43
2019-02-02T13:30:27.133Z,14.23
2019-02-02T13:32:55.413Z,13.20
2019-02-02T13:35:24.828Z,17.07
2019-02-02T13:37:53.601Z,12.33
2019-02-02T13:40:23.428Z,16.03
2019-02-02T13:42:51.867Z,14.57
2019-02-02T13:45:21.792Z,19.27
2019-02-02T13:47:50.095Z,16.73
2019-02-02T13:50:19.240Z,16.10
2019-02-02T13:52:49.066Z,16.77
2019-02-02T13:55:17.342Z,16.63
2019-02-02T13:57:45.642Z,20.47
2019-02-02T14:00:22.720Z,17.50
2019-02-02T14:03:02.405Z,17.63
2019-02-02T14:05:21.100Z,18.37
2019-02-02T14:07:49.385Z,20.23
2019-02-02T14:10:20.729Z,17.47
2019-02-02T14:12:49.765Z,20.30
2019-02-02T14:15:18.355Z,19.33
2019-02-02T14:17:46.632Z,19.47
2019-02-02T14:20:15.438Z,19.57
2019-02-02T14:22:43.802Z,17.27
2019-02-02T14:25:31.497Z,18.37
2019-02-02T14:27:59.782Z,13.07
2019-02-02T14:30:28.190Z,15.57
2019-02-02T14:32:56.505Z,19.87
2019-02-02T14:35:27.462Z,21.50
2019-02-02T14:37:55.739Z,13.50
2019-02-02T14:40:24.020Z,13.87
2019-02-02T14:42:52.375Z,15.17
2019-02-02T14:45:23.222Z,15.40
2019-02-02T14:47:51.708Z,12.60
2019-02-02T14:50:21.403Z,15.30
2019-02-02T14:52:50.985Z,14.13
2019-02-02T14:55:30.153Z,17.13
2019-02-02T14:57:58.416Z,17.90
2019-02-02T15:00:29.248Z,16.93
2019-02-02T15:02:57.767Z,17.13
2019-02-02T15:05:26.628Z,14.33
2019-02-02T15:07:54.898Z,18.53
2019-02-02T15:10:24.104Z,14.57
2019-02-02T15:13:01.367Z,14.23
2019-02-02T15:15:29.756Z,17.30
2019-02-02T15:17:58.046Z,18.00
2019-02-02T15:20:31.796Z,17.43
2019-02-02T15:23:00.387Z,18.57
2019-02-02T15:25:28.671Z,17.30
2019-02-02T15:27:57.008Z,18.73
2019-02-02T15:30:27.431Z,20.63
2019-02-02T15:32:55.698Z,19.07
2019-02-02T15:35:23.990Z,19.37
2019-02-02T15:37:52.466Z,16.97
2019-02-02T15:40:21.674Z,15.23
2019-02-02T15:42:49.958Z,18.03
2019-02-02T15:45:21.085Z,17.67
2019-02-02T15:47:55.276Z,14.93
2019-02-02T15:50:23.548Z,13.63
2019-02-02T15:52:51.836Z,16.47
2019-02-02T15:55:21.971Z,16.00
2019-02-02T15:57:51.021Z,15.50
2019-02-02T16:00:34.374Z,18.37
2019-02-02T16:03:02.729Z,20.13
2019-02-02T16:05:31.198Z,21.47
2019-02-02T16:08:01.504Z,24.67
2019-02-02T16:10:33.591Z,32.33
2019-02-02T16:13:01.916Z,32.83
2019-02-02T16:15:30.191Z,31.87
2019-02-02T16:17:58.470Z,33.83
2019-02-02T16:20:32.998Z,27.30
2019-02-02T16:23:01.325Z,23.20
2019-02-02T16:25:29.608Z,32.30
2019-02-02T16:27:57.924Z,30.47
2019-02-02T16:30:30.332Z,25.17
2019-02-02T16:32:58.601Z,22.87
2019-02-02T16:35:26.882Z,20.27
2019-02-02T16:37:55.643Z,20.30
2019-02-02T16:40:26.051Z,16.17
2019-02-02T16:42:54.404Z,18.13
2019-02-02T16:45:25.733Z,14.73
2019-02-02T16:47:54.000Z,18.83
2019-02-02T16:50:22.911Z,16.67
2019-02-02T16:52:51.186Z,18.00
2019-02-02T16:55:19.929Z,18.87
2019-02-02T16:57:48.201Z,18.70
2019-02-02T17:00:25.151Z,18.90
2019-02-02T17:02:53.579Z,20.07
2019-02-02T17:05:21.865Z,19.87
2019-02-02T17:07:50.205Z,22.30
2019-02-02T17:10:23.579Z,21.80
2019-02-02T17:12:51.857Z,21.80
2019-02-02T17:15:20.232Z,19.53
2019-02-02T17:17:48.600Z,19.53
2019-02-02T17:20:22.571Z,19.90
2019-02-02T17:22:51.125Z,20.03
2019-02-02T17:25:22.564Z,17.10
2019-02-02T17:27:50.771Z,18.53
2019-02-02T17:30:24.593Z,18.73
2019-02-02T17:32:54.910Z,16.83
2019-02-02T17:35:23.218Z,19.30
2019-02-02T17:37:51.512Z,18.53
2019-02-02T17:40:22.493Z,19.03
2019-02-02T17:42:50.796Z,17.77
2019-02-02T17:45:21.693Z,24.57
2019-02-02T17:47:50.502Z,19.93
2019-02-02T17:50:26.846Z,22.73
2019-02-02T17:52:55.188Z,19.33
2019-02-02T17:55:23.552Z,18.03
2019-02-02T17:57:51.854Z,20.87
2019-02-02T18:00:33.309Z,18.47
2019-02-02T18:03:01.661Z,18.50
2019-02-02T18:05:29.999Z,18.37
2019-02-02T18:07:58.357Z,22.60
2019-02-02T18:10:26.629Z,20.87
2019-02-02T18:12:54.973Z,18.67
2019-02-02T18:15:23.251Z,22.97
2019-02-02T18:17:51.527Z,18.20
2019-02-02T18:20:19.799Z,22.23
2019-02-02T18:22:48.074Z,23.80
2019-02-02T18:25:17.384Z,19.50
2019-02-02T18:27:45.931Z,23.33
2019-02-02T18:30:19.895Z,25.30
2019-02-02T18:32:48.165Z,20.83
2019-02-02T18:35:16.905Z,18.50
2019-02-02T18:40:23.873Z,19.70
2019-02-02T18:42:52.264Z,23.33
2019-02-02T18:45:30.714Z,22.00
2019-02-02T18:47:59.054Z,26.20
2019-02-02T18:50:27.329Z,20.80
2019-02-02T18:52:57.762Z,21.23
2019-02-02T18:55:32.012Z,22.27
2019-02-02T18:58:00.361Z,18.07
2019-02-02T19:00:28.650Z,18.70
2019-02-02T19:02:56.938Z,21.37
2019-02-02T19:05:25.484Z,20.13
2019-02-02T19:07:53.758Z,19.57
2019-02-02T19:10:31.131Z,19.13
2019-02-02T19:12:59.400Z,19.73
2019-02-02T19:15:27.692Z,19.17
2019-02-02T19:17:55.971Z,18.80
2019-02-02T19:20:24.256Z,17.73
2019-02-02T19:22:52.651Z,18.00
2019-02-02T19:25:20.985Z,18.00
2019-02-02T19:27:49.258Z,19.87
2019-02-02T19:30:20.338Z,16.70
2019-02-02T19:32:48.612Z,19.33
2019-02-02T19:35:17.000Z,18.03
2019-02-02T19:37:45.403Z,16.80
2019-02-02T19:40:15.912Z,20.60
2019-02-02T19:42:44.300Z,18.13
2019-02-02T19:45:18.712Z,15.97
2019-02-02T19:47:47.048Z,17.50
2019-02-02T19:50:18.520Z,18.70
2019-02-02T19:52:46.808Z,19.07
2019-02-02T19:55:15.233Z,18.20
2019-02-02T19:57:43.676Z,16.80
2019-02-02T20:00:21.066Z,17.37
2019-02-02T20:02:49.522Z,21.67
2019-02-02T20:05:28.089Z,15.97
2019-02-02T20:07:47.997Z,21.20
2019-02-02T20:10:17.912Z,18.10
2019-02-02T20:12:46.231Z,20.10
2019-02-02T20:15:22.968Z,18.97
2019-02-02T20:17:51.304Z,21.00
2019-02-02T20:20:24.421Z,20.90
2019-02-02T20:22:52.824Z,21.90
2019-02-02T20:25:21.745Z,24.60
2019-02-02T20:27:50.086Z,20.97
2019-02-02T20:30:23.969Z,17.87
2019-02-02T20:32:52.254Z,21.27
2019-02-02T20:35:20.612Z,20.80
2019-02-02T20:37:48.885Z,19.77
2019-02-02T20:40:19.431Z,24.37
2019-02-02T20:42:47.779Z,26.00
2019-02-02T20:45:21.651Z,21.10
2019-02-02T20:47:49.933Z,21.30
2019-02-02T20:50:19.041Z,21.90
2019-02-02T20:52:48.071Z,20.80
2019-02-02T20:55:19.599Z,25.30
2019-02-02T20:57:48.351Z,22.13
2019-02-02T21:00:25.185Z,22.27
2019-02-02T21:02:53.520Z,21.77
2019-02-02T21:05:21.800Z,21.93
2019-02-02T21:07:50.194Z,20.33
2019-02-02T21:10:21.178Z,19.80
2019-02-02T21:12:49.526Z,22.03
2019-02-02T21:15:17.979Z,19.47
2019-02-02T21:17:46.687Z,23.17
2019-02-02T21:20:17.458Z,21.27
2019-02-02T21:22:45.757Z,18.97
2019-02-02T21:25:15.425Z,21.83
2019-02-02T21:27:43.737Z,21.73
2019-02-02T21:30:15.218Z,23.53
2019-02-02T21:32:43.575Z,21.57
2019-02-02T21:35:11.853Z,23.17
2019-02-02T21:37:40.646Z,20.87
2019-02-02T21:40:20.087Z,21.50
2019-02-02T21:42:48.485Z,22.10
2019-02-02T21:45:17.017Z,20.30
2019-02-02T21:47:45.372Z,23.03
2019-02-02T21:50:21.959Z,27.13
2019-02-02T21:52:50.635Z,18.27
2019-02-02T21:55:20.867Z,26.37
2019-02-02T21:57:49.220Z,21.73
2019-02-02T22:00:20.477Z,23.93
2019-02-02T22:02:48.792Z,21.87
2019-02-02T22:05:17.072Z,21.93
2019-02-02T22:07:47.351Z,23.23
2019-02-02T22:10:16.083Z,20.60
2019-02-02T22:12:44.367Z,25.43
2019-02-02T22:15:21.793Z,26.00
2019-02-02T22:17:50.214Z,21.43
2019-02-02T22:20:18.860Z,26.70
2019-02-02T22:22:47.603Z,28.30
2019-02-02T22:25:21.075Z,23.80
2019-02-02T22:27:49.440Z,21.03
2019-02-02T22:30:32.597Z,24.57
2019-02-02T22:33:00.963Z,23.73
2019-02-02T22:35:29.317Z,21.53
2019-02-02T22:37:58.277Z,21.87
2019-02-02T22:40:28.301Z,20.90
2019-02-02T22:42:56.647Z,21.83
2019-02-02T22:45:25.024Z,22.47
2019-02-02T22:47:53.380Z,22.60
2019-02-02T22:50:26.083Z,26.40
2019-02-02T22:52:54.809Z,21.07
2019-02-02T22:55:24.474Z,23.93
2019-02-02T22:57:53.398Z,21.10
2019-02-02T23:00:56.243Z,28.53
2019-02-02T23:03:30.556Z,32.70
2019-02-02T23:06:38.863Z,30.87
2019-02-02T23:09:35.277Z,27.30
2019-02-02T23:12:10.631Z,26.73
2019-02-02T23:15:00.365Z,27.63
2019-02-02T23:17:28.908Z,27.17
2019-02-02T23:20:00.329Z,22.37
2019-02-02T23:22:27.653Z,28.77
2019-02-02T23:24:56.200Z,26.43
2019-02-02T23:27:24.470Z,24.77
2019-02-02T23:29:52.805Z,23.60
2019-02-02T23:32:22.053Z,24.23
2019-02-02T23:34:50.614Z,25.77
2019-02-02T23:37:18.946Z,24.23
2019-02-02T23:39:47.305Z,26.47
2019-02-02T23:42:15.640Z,26.70
2019-02-02T23:44:43.909Z,31.17
2019-02-02T23:47:12.283Z,28.23
2019-02-02T23:49:46.590Z,28.50
2019-02-02T23:52:15.018Z,28.33
2019-02-02T23:54:43.319Z,30.07
2019-02-02T23:57:11.589Z,28.07
2019-02-02T23:59:40.647Z,32.43
